Weather observations for the past three days for
Grand Island, Central Nebraska Regional Airport
Imperial (Metric)
Date Time (cdt) Wind (mph) Vis. (mi.) Weather Sky Cond. Temperature (ºF) Relative Humidity Wind Chill (°F) Heat Index (°F) Pressure Precipitation (in)
Air Dwpt 6 hour altimeter (in) sea level (mb) 1 hr 3 hr 6 hr
Max. Min.
03 13:53 NE 14 G 18 10.00 Fair CLR 73 34 24% 29.89 1011.8
03 12:53 NE 7 G 21 10.00 Fair CLR 73 33.1 73.9 46.9 23% 29.91 1012.4
03 11:53 NE 13 G 21 10.00 Fair CLR 73 33.1 23% 29.92 1012.8
03 10:53 N 9 G 20 10.00 Fair CLR 68 36 31% 29.94 1013.5
03 09:53 NW 9 10.00 Fair CLR 63 37 38% 29.95 1014.0
03 08:53 W 8 10.00 Fair CLR 57.9 36 44% 29.94 1013.7
03 07:53 W 9 10.00 Fair CLR 53.1 36 52% 29.91 1012.8
03 06:53 W 6 9.00 Fair CLR 48 35.1 57 43 61% 46 29.89 1012.1
03 05:53 W 6 10.00 Fair CLR 44.1 35.1 71% 41 29.88 1011.9
03 04:53 SW 8 10.00 Fair CLR 48.9 35.1 59% 46 29.88 1011.9
03 03:53 SW 21 10.00 Fair and Breezy CLR 54 33.1 45% 29.85 1010.7
03 02:53 SW 20 G 36 10.00 Fair CLR 55 33.1 44% 29.87 1011.4
03 01:53 SW 21 G 31 10.00 Fair and Breezy CLR 55 33.1 44% 29.89 1012.2
03 00:53 SW 23 G 33 10.00 Fair and Breezy CLR 57 33.1 71.1 57 41% 29.9 1012.5
02 23:53 S 18 G 29 10.00 Fair CLR 57.9 32 38% 29.91 1012.7
02 22:53 S 16 10.00 Fair CLR 57.9 33.1 39% 29.92 1013.3
02 21:53 S 13 10.00 Fair CLR 59 33.1 38% 29.94 1014.0
02 20:53 S 9 10.00 Fair CLR 60.1 32 35% 29.94 1014.3
02 19:53 SW 10 10.00 Fair CLR 68 30 24% 29.95 1014.6
02 18:53 SW 15 G 22 10.00 Fair CLR 71.1 28.9 71.1 63 21% 29.97 1015.5
02 17:53 SW 14 10.00 Fair CLR 70 27 20% 29.99 1016.1
02 16:53 W 16 G 24 10.00 Fair CLR 70 25 18% 30.02 1017.2
02 15:53 SW 13 G 25 10.00 Fair CLR 69.1 25 19% 30.05 1018.1
02 14:53 SW 14 G 21 10.00 Fair CLR 68 24.1 19% 30.08 1019.1
02 13:53 SW 8 G 22 10.00 Fair CLR 64.9 26.1 23% 30.1 1020.1
02 12:53 W 13 10.00 Fair CLR 63 25 64 30.9 24% 30.13 1021.1
02 11:53 W 10 G 21 10.00 Fair CLR 62.1 25 24% 30.16 1022.0
02 10:53 NW 8 10.00 Fair CLR 57.9 26.1 29% 30.17 1022.5
02 09:53 W 14 10.00 Fair CLR 53.1 30 41% 30.18 1023.1
02 08:53 W 7 10.00 Fair CLR 45 28 52% 42 30.19 1023.3
02 07:53 W 6 10.00 Fair CLR 37.9 28.9 70% 34 30.19 1023.5
02 06:53 W 5 10.00 Fair CLR 30.9 26.1 39 30.9 82% 27 30.18 1023.3
02 05:53 W 3 10.00 Fair CLR 33.1 26.1 75% 30.18 1023.0
02 04:53 W 5 10.00 Fair CLR 30.9 26.1 82% 27 30.18 1023.1
02 03:53 W 5 10.00 Fair CLR 34 27 76% 30 30.18 1023.0
02 02:53 W 3 10.00 Fair CLR 35.1 28 76% 30.18 1023.0
02 01:53 W 6 10.00 Fair CLR 35.1 28 76% 31 30.18 1023.3
02 00:53 N 3 10.00 Fair CLR 37.9 25 57.9 37 60% 30.18 1022.8
01 23:53 NE 3 10.00 Fair CLR 37.9 26.1 62% 30.17 1022.6
01 22:53 NE 5 10.00 Fair CLR 41 26.1 55% 38 30.16 1022.2
01 21:53 NE 6 10.00 Fair CLR 43 27 53% 40 30.13 1021.6
01 20:53 NE 7 10.00 Fair CLR 48 27 44% 45 30.11 1020.7
01 19:53 N 12 10.00 Fair CLR 55.9 24.1 29% 30.09 1019.8
01 18:53 N 15 G 24 10.00 Fair CLR 57.9 25 62.1 55.9 28% 30.08 1019.7
01 17:53 N 13 10.00 A Few Clouds FEW075 60.1 26.1 27% 30.07 1019.3
01 16:53 N 20 G 26 10.00 Partly Cloudy SCT075 SCT090 62.1 28.9 29% 30.08 1019.5
01 15:53 NW 14 G 26 10.00 A Few Clouds FEW070 60.1 28.9 31% 30.09 1019.9
01 14:53 N 14 G 22 10.00 Partly Cloudy SCT090 59 28.9 32% 30.11 1020.3
01 13:53 NE 12 G 21 10.00 Partly Cloudy FEW070 SCT095 57 28.9 34% 30.11 1020.7
01 12:53 NE 10 10.00 Fair CLR 57 28 57.9 34 33% 30.12 1020.9
01 11:53 NE 9 10.00 Fair CLR 55 27 34% 30.13 1021.1
01 10:53 N 14 G 20 10.00 Fair CLR 52 28.9 41% 30.13 1021.2
01 09:53 N 15 10.00 Fair CLR 48.9 33.1 55% 44 30.13 1021.1
01 08:53 N 9 10.00 Fair CLR 45 33.1 63% 41 30.12 1021.3
01 07:53 NW 8 10.00 A Few Clouds FEW090 39 30 70% 34 30.12 1021.0
01 06:53 W 8 10.00 Fair CLR 34 28.9 41 32 82% 28 30.11 1020.9
01 05:53 NW 7 10.00 Fair CLR 33.1 30 89% 28 30.11 1020.8
01 04:53 W 10 10.00 Fair CLR 37 30.9 79% 30 30.09 1020.1
01 03:53 W 10 10.00 Fair CLR 39 32 76% 33 30.09 1019.9
01 02:53 SW 9 10.00 Fair CLR 37.9 32 79% 32 30.1 1020.2
01 01:53 SW 7 10.00 Fair CLR 39 32 76% 35 30.11 1020.4
01 00:53 SW 7 10.00 Fair CLR 39 32 54 37.9 76% 35 30.12 1020.8
30 23:53 S 5 10.00 Fair CLR 42.1 32 68% 40 30.12 1020.6
30 22:53 S 3 10.00 Fair CLR 43 30 60% 30.13 1021.1
30 21:53 Calm 10.00 Fair CLR 44.1 30 58% 30.13 1021.2
30 20:53 N 6 10.00 Fair CLR 44.1 30.9 60% 41 30.11 1020.9
30 19:53 N 8 10.00 Fair CLR 52 30 43% 30.11 1020.4
30 18:53 N 15 10.00 Mostly Cloudy BKN090 54 30.9 59 53.1 42% 30.1 1020.4
30 17:53 N 16 10.00 Mostly Cloudy SCT055 SCT070 BKN090 55 33.1 44% 30.1 1019.9
30 16:53 N 17 G 25 10.00 Mostly Cloudy FEW060 BKN080 55.9 34 44% 30.09 1019.8
30 15:53 N 12 G 24 10.00 Overcast BKN050 BKN065 OVC075 55.9 36 47% 30.1 1020.1
30 14:53 N 15 G 21 10.00 Mostly Cloudy SCT044 BKN060 55.9 36 47% 30.11 1020.2
Date Time (cdt) Wind (mph) Vis. (mi.) Weather Sky Cond. Air Dwpt Max. Min. Relative Humidity Wind Chill (°F) Heat Index (°F) altimeter (in) sea level (mb) 1 hr 3 hr 6 hr
6 hour
Temperature (ºF) Pressure Precipitation (in)